Time;durP1;ratioP1;P1;durP2;ratioP2;P2;SDS_P1;SDS_P2;PMS_P1;PMS_P2;Temp;Humidity;BMP_temperature;BMP_pressure;BME280_temperature;BME280_humidity;BME280_pressure;Samples;Min_cycle;Max_cycle;Signal;HPM_P1;HPM_P2
2020/12/22 00:01:37;;;;;;;0.88;0.40;;;9.30;94.60;;;;;;4877755;29;20169;-89
2020/12/22 00:04:14;;;;;;;0.60;0.30;;;9.30;94.70;;;;;;4910088;29;20115;-89
2020/12/22 00:07:07;;;;;;;0.68;0.40;;;9.30;94.70;;;;;;4923023;29;20056;-88
2020/12/22 00:09:36;;;;;;;0.57;0.22;;;9.40;94.40;;;;;;4903052;29;20048;-89
2020/12/22 00:12:16;;;;;;;1.10;0.50;;;9.40;94.40;;;;;;4919345;29;20060;-89
2020/12/22 00:14:49;;;;;;;0.30;0.20;;;9.40;94.40;;;;;;4918097;29;20033;-89
2020/12/22 00:17:20;;;;;;;0.40;0.30;;;9.40;94.30;;;;;;4919277;29;20061;-89
2020/12/22 00:30:55;;;;;;;0.55;0.20;;;9.50;94.60;;;;;;4912064;29;20048;-88
2020/12/22 00:33:32;;;;;;;1.52;0.60;;;9.50;94.90;;;;;;4900246;29;20052;-89
2020/12/22 00:36:08;;;;;;;0.45;0.20;;;9.50;95.00;;;;;;4919704;29;20060;-89
2020/12/22 00:38:37;;;;;;;0.40;0.20;;;9.50;95.10;;;;;;4891588;29;20049;-89
2020/12/22 00:41:04;;;;;;;0.65;0.25;;;9.50;95.00;;;;;;4918259;29;20092;-88
2020/12/22 00:46:24;;;;;;;;;;;9.60;95.10;;;;;;4920733;29;20299;-88
2020/12/22 00:48:54;;;;;;;0.25;0.20;;;9.50;94.90;;;;;;4920979;29;19919;-88
2020/12/22 00:51:27;;;;;;;0.40;0.20;;;9.60;95.00;;;;;;4921908;29;20055;-89
2020/12/22 00:54:13;;;;;;;1.30;0.22;;;9.60;94.70;;;;;;4922551;29;20083;-87
2020/12/22 00:56:48;;;;;;;0.40;0.30;;;9.70;94.60;;;;;;4913352;29;20345;-90
2020/12/22 00:59:46;;;;;;;0.25;0.20;;;9.70;94.50;;;;;;4921875;29;20081;-89
2020/12/22 01:06:04;;;;;;;0.40;0.30;;;9.80;94.20;;;;;;4921874;29;20057;-89
2020/12/22 01:08:44;;;;;;;0.32;0.30;;;9.90;93.90;;;;;;4924382;29;20044;-89
2020/12/22 01:12:09;;;;;;;3.70;0.50;;;9.90;93.80;;;;;;4921947;29;20052;-89
2020/12/22 01:15:10;;;;;;;0.20;0.20;;;9.90;93.80;;;;;;4820839;29;20058;-89
2020/12/22 01:18:14;;;;;;;1.17;0.52;;;10.00;93.70;;;;;;4807056;29;20080;-91
2020/12/22 01:20:44;;;;;;;0.98;0.30;;;10.00;93.90;;;;;;4839916;29;20083;-89
2020/12/22 01:23:12;;;;;;;2.42;0.38;;;10.00;93.70;;;;;;4831950;29;20115;-89
2020/12/22 01:26:02;;;;;;;1.15;0.70;;;10.00;93.70;;;;;;4921514;29;20092;-89
2020/12/22 01:29:08;;;;;;;1.13;0.43;;;10.10;93.50;;;;;;4933012;29;20097;-89
2020/12/22 01:31:41;;;;;;;0.82;0.43;;;10.20;93.40;;;;;;4921321;29;20056;-90
2020/12/22 01:37:52;;;;;;;1.33;0.70;;;10.20;93.40;;;;;;4900291;29;20068;-90
2020/12/22 01:43:38;;;;;;;1.38;0.50;;;10.20;93.30;;;;;;4918903;29;20128;-89
2020/12/22 01:46:10;;;;;;;0.80;0.38;;;10.20;93.40;;;;;;4916138;29;20049;-90
2020/12/22 01:48:41;;;;;;;0.55;0.30;;;10.20;93.50;;;;;;4920112;29;20055;-89
2020/12/22 01:51:14;;;;;;;1.58;0.35;;;10.30;93.50;;;;;;4928235;29;20060;-89
2020/12/22 01:53:47;;;;;;;0.95;0.40;;;10.30;93.40;;;;;;4918065;29;20056;-88
2020/12/22 01:56:35;;;;;;;0.73;0.40;;;10.30;93.30;;;;;;4902792;29;20052;-88
2020/12/22 01:59:18;;;;;;;0.60;0.30;;;10.40;93.10;;;;;;4916653;29;20036;-89
2020/12/22 02:01:57;;;;;;;0.90;0.40;;;10.40;93.10;;;;;;4920624;29;20060;-88
2020/12/22 02:04:26;;;;;;;1.15;0.45;;;10.40;93.20;;;;;;4922895;29;20057;-89
2020/12/22 02:06:59;;;;;;;0.68;0.47;;;10.50;93.00;;;;;;4922465;29;20072;-89
2020/12/22 02:09:31;;;;;;;0.30;0.20;;;10.60;92.90;;;;;;4920478;29;20064;-89
2020/12/22 02:12:04;;;;;;;1.42;0.50;;;10.60;93.00;;;;;;4920770;29;20324;-90
2020/12/22 02:14:31;;;;;;;0.70;0.30;;;10.60;93.00;;;;;;4920442;29;20045;-89
2020/12/22 02:21:12;;;;;;;0.80;0.40;;;10.60;93.00;;;;;;4911941;29;20037;-90
2020/12/22 02:23:56;;;;;;;0.82;0.25;;;10.70;92.80;;;;;;4927362;29;20055;-89
2020/12/22 02:26:59;;;;;;;0.82;0.52;;;10.70;92.90;;;;;;4935369;29;20049;-90
2020/12/22 02:29:37;;;;;;;0.80;0.30;;;10.70;92.80;;;;;;4920316;29;20121;-90
2020/12/22 02:32:11;;;;;;;1.23;0.47;;;10.70;92.50;;;;;;4916644;29;20115;-91
2020/12/22 02:34:56;;;;;;;0.40;0.28;;;10.90;92.30;;;;;;4923137;29;20051;-90
2020/12/22 02:37:35;;;;;;;1.98;0.68;;;10.90;92.20;;;;;;4901241;29;20055;-89
2020/12/22 02:40:06;;;;;;;0.32;0.22;;;10.90;92.20;;;;;;4907862;29;20056;-89
2020/12/22 02:42:35;;;;;;;0.73;0.30;;;10.90;92.50;;;;;;4901870;29;20059;-89
2020/12/22 02:45:05;;;;;;;0.88;0.50;;;10.90;92.50;;;;;;4916506;29;20051;-90
2020/12/22 02:47:59;;;;;;;0.20;0.20;;;10.90;92.30;;;;;;4920384;29;20057;-88
2020/12/22 02:51:01;;;;;;;0.85;0.40;;;10.90;92.40;;;;;;4897769;29;20044;-89
2020/12/22 02:53:46;;;;;;;0.47;0.25;;;10.80;92.90;;;;;;4902001;29;20048;-90
2020/12/22 02:56:46;;;;;;;0.80;0.20;;;10.80;93.00;;;;;;4922023;29;20044;-92
2020/12/22 02:59:25;;;;;;;0.63;0.13;;;10.80;93.10;;;;;;4904261;29;20061;-91
2020/12/22 03:01:52;;;;;;;0.70;0.30;;;10.80;93.30;;;;;;4919006;29;20076;-89
2020/12/22 03:04:20;;;;;;;0.55;0.38;;;10.70;93.50;;;;;;4918426;29;20048;-90
2020/12/22 03:06:51;;;;;;;0.30;0.20;;;10.70;93.70;;;;;;4918102;29;20060;-89
2020/12/22 03:09:27;;;;;;;2.08;0.38;;;10.70;93.90;;;;;;4917991;29;20045;-89
2020/12/22 03:11:55;;;;;;;0.40;0.30;;;10.80;93.80;;;;;;4902374;29;20069;-89
2020/12/22 03:14:31;;;;;;;0.57;0.20;;;10.80;93.80;;;;;;4918283;29;20363;-87
2020/12/22 03:17:27;;;;;;;1.73;0.40;;;10.80;93.80;;;;;;4904108;29;20048;-88
2020/12/22 03:19:58;;;;;;;1.05;0.40;;;10.80;93.70;;;;;;4901640;29;20045;-88
2020/12/22 03:22:31;;;;;;;0.55;0.32;;;10.90;93.40;;;;;;4919333;29;20052;-89
2020/12/22 03:25:02;;;;;;;0.73;0.30;;;10.90;93.10;;;;;;4925571;29;20103;-90
2020/12/22 03:27:34;;;;;;;0.57;0.40;;;10.90;93.30;;;;;;4923035;29;20072;-89
2020/12/22 03:30:15;;;;;;;2.05;0.35;;;11.00;93.00;;;;;;4918435;29;20048;-88
2020/12/22 03:33:06;;;;;;;0.30;0.30;;;11.00;93.00;;;;;;4919913;29;20048;-89
2020/12/22 03:35:38;;;;;;;1.23;0.30;;;11.00;93.20;;;;;;4919113;29;20149;-89
2020/12/22 03:38:34;;;;;;;1.08;0.40;;;11.00;93.10;;;;;;4918323;29;20048;-88
2020/12/22 03:41:02;;;;;;;0.45;0.30;;;11.00;92.90;;;;;;4922526;29;20055;-88
2020/12/22 03:43:38;;;;;;;4.40;0.35;;;11.10;92.80;;;;;;4913430;29;20068;-90
2020/12/22 03:46:19;;;;;;;0.47;0.30;;;11.00;92.90;;;;;;4918572;29;20049;-88
2020/12/22 03:49:09;;;;;;;;;;;11.10;92.70;;;;;;4918992;29;20067;-89
2020/12/22 03:51:43;;;;;;;0.20;0.20;;;11.10;92.30;;;;;;4917776;29;19927;-89
2020/12/22 03:54:13;;;;;;;0.40;0.20;;;11.10;92.30;;;;;;4902457;29;20053;-88
2020/12/22 03:56:56;;;;;;;1.00;0.50;;;11.20;92.00;;;;;;4917521;29;20040;-90
2020/12/22 04:00:04;;;;;;;0.22;0.15;;;11.20;92.10;;;;;;4919106;29;20076;-89
2020/12/22 04:02:45;;;;;;;0.52;0.20;;;11.30;91.80;;;;;;4917965;29;20068;-89
2020/12/22 04:05:35;;;;;;;0.13;0.10;;;11.30;91.90;;;;;;4914544;29;20045;-89
2020/12/22 04:08:08;;;;;;;0.30;0.28;;;11.40;91.70;;;;;;4917446;29;20044;-89
2020/12/22 04:10:42;;;;;;;0.73;0.35;;;11.40;91.60;;;;;;4917710;29;20127;-87
2020/12/22 04:13:15;;;;;;;0.25;0.22;;;11.40;91.40;;;;;;4921618;29;20119;-89
2020/12/22 04:15:47;;;;;;;0.20;0.20;;;11.50;91.50;;;;;;4902821;29;20048;-90
2020/12/22 04:18:15;;;;;;;1.35;0.40;;;11.40;91.50;;;;;;4917817;29;20058;-89
2020/12/22 04:20:43;;;;;;;1.25;0.25;;;11.50;91.50;;;;;;4917152;29;20120;-89
2020/12/22 04:23:11;;;;;;;1.00;0.20;;;11.50;91.50;;;;;;4916142;29;20067;-90
2020/12/22 04:25:40;;;;;;;0.80;0.32;;;11.50;91.50;;;;;;4914749;29;20113;-89
2020/12/22 04:28:13;;;;;;;0.35;0.22;;;11.50;91.70;;;;;;4917798;29;20061;-89
2020/12/22 04:30:46;;;;;;;0.45;0.20;;;11.60;91.50;;;;;;4917702;29;20044;-89
2020/12/22 04:33:19;;;;;;;0.50;0.20;;;11.60;91.60;;;;;;4917413;29;20049;-88
2020/12/22 04:35:52;;;;;;;0.20;0.20;;;11.60;91.40;;;;;;4918414;29;20048;-90
2020/12/22 04:38:32;;;;;;;0.45;0.20;;;11.70;91.20;;;;;;4892722;29;20036;-90
2020/12/22 04:41:03;;;;;;;;;;;11.70;90.80;;;;;;4918874;29;20047;-88
2020/12/22 04:43:31;;;;;;;0.20;0.20;;;11.80;90.60;;;;;;4902813;29;19947;-90
2020/12/22 04:46:44;;;;;;;0.22;0.17;;;11.70;90.70;;;;;;4912581;29;20056;-89
2020/12/22 04:49:28;;;;;;;1.23;0.20;;;11.70;90.80;;;;;;4891312;29;20057;-88
2020/12/22 04:52:01;;;;;;;4.95;0.30;;;11.70;91.00;;;;;;4917887;29;20052;-88
2020/12/22 04:54:34;;;;;;;0.85;0.40;;;11.70;91.10;;;;;;4917656;29;20059;-88
2020/12/22 04:57:31;;;;;;;0.88;0.40;;;11.80;90.80;;;;;;4917741;29;20061;-88
2020/12/22 05:00:05;;;;;;;0.57;0.40;;;11.80;90.70;;;;;;4914099;29;20040;-90
2020/12/22 05:02:41;;;;;;;0.25;0.20;;;11.90;90.50;;;;;;4917711;29;20045;-88
2020/12/22 05:05:20;;;;;;;0.55;0.30;;;11.90;90.50;;;;;;4901676;29;20224;-90
2020/12/22 05:08:09;;;;;;;0.35;0.20;;;11.90;90.50;;;;;;4914872;29;20049;-87
2020/12/22 05:10:41;;;;;;;;;;;11.80;90.70;;;;;;4916513;29;20055;-90
2020/12/22 05:13:11;;;;;;;0.28;0.20;;;11.90;90.40;;;;;;4929138;29;19946;-88
2020/12/22 05:15:48;;;;;;;0.30;0.20;;;11.90;90.40;;;;;;4901344;29;20045;-89
2020/12/22 05:18:32;;;;;;;0.28;0.20;;;11.90;90.50;;;;;;4907600;29;20100;-89
2020/12/22 05:21:10;;;;;;;0.10;0.10;;;11.90;90.70;;;;;;4902234;29;20052;-88
2020/12/22 05:23:41;;;;;;;0.30;0.20;;;11.90;90.60;;;;;;4917230;29;20068;-89
2020/12/22 05:26:21;;;;;;;0.10;0.10;;;11.90;90.50;;;;;;4902966;29;20041;-89
2020/12/22 05:28:53;;;;;;;1.90;0.20;;;11.90;90.50;;;;;;4929218;29;20089;-90
2020/12/22 05:31:27;;;;;;;0.10;0.10;;;11.90;90.80;;;;;;4923152;29;20053;-90
2020/12/22 05:33:58;;;;;;;0.45;0.20;;;11.90;90.70;;;;;;4902016;29;20044;-87
2020/12/22 05:36:39;;;;;;;0.50;0.30;;;11.90;90.80;;;;;;4907302;29;20068;-87
2020/12/22 05:39:19;;;;;;;0.98;0.20;;;11.90;90.90;;;;;;4921718;29;20049;-88
2020/12/22 05:41:55;;;;;;;0.60;0.20;;;11.90;91.10;;;;;;4905466;29;20052;-90
2020/12/22 05:44:33;;;;;;;0.22;0.10;;;11.80;91.50;;;;;;4905600;29;20097;-88
2020/12/22 05:47:03;;;;;;;0.10;0.10;;;11.80;91.60;;;;;;4916349;29;20045;-89
2020/12/22 05:49:51;;;;;;;;;;;11.90;91.80;;;;;;4920897;29;20102;-88
2020/12/22 05:52:23;;;;;;;0.20;0.10;;;11.90;91.60;;;;;;4920893;29;19934;-90
2020/12/22 05:55:13;;;;;;;0.40;0.20;;;12.00;91.60;;;;;;4915327;29;20049;-90
2020/12/22 05:57:57;;;;;;;0.68;0.20;;;11.90;92.00;;;;;;4906331;29;20063;-89
2020/12/22 06:00:48;;;;;;;0.75;0.20;;;11.90;92.20;;;;;;4923081;29;20060;-89
2020/12/22 06:03:53;;;;;;;1.98;0.35;;;11.90;92.00;;;;;;4900397;29;20336;-90
2020/12/22 06:06:45;;;;;;;0.50;0.10;;;11.90;92.10;;;;;;4920535;29;20072;-88
2020/12/22 06:09:29;;;;;;;0.63;0.40;;;11.90;92.30;;;;;;4921413;29;20044;-89
2020/12/22 06:12:15;;;;;;;0.40;0.15;;;11.90;92.30;;;;;;4909115;29;20040;-89
2020/12/22 06:14:45;;;;;;;;;;;11.90;92.40;;;;;;4915462;29;20064;-88
2020/12/22 06:17:13;;;;;;;;;;;11.90;92.60;;;;;;4921601;29;19951;-90
2020/12/22 06:20:18;;;;;;;0.10;0.10;;;11.90;92.60;;;;;;4914640;29;19951;-89
2020/12/22 06:22:51;;;;;;;0.40;0.20;;;12.00;92.40;;;;;;4920639;29;20089;-89
2020/12/22 06:25:20;;;;;;;0.60;0.30;;;11.90;92.40;;;;;;4920939;29;20112;-87
2020/12/22 06:27:48;;;;;;;2.70;0.28;;;12.00;92.10;;;;;;4903680;29;20083;-89
2020/12/22 06:30:18;;;;;;;2.17;0.20;;;12.00;92.00;;;;;;4916094;29;20045;-89
2020/12/22 06:32:48;;;;;;;1.58;0.20;;;12.10;91.80;;;;;;4896828;29;20053;-90
2020/12/22 06:35:31;;;;;;;;;;;12.10;91.60;;;;;;4920576;29;20048;-90
2020/12/22 06:38:15;;;;;;;0.10;0.10;;;12.10;91.50;;;;;;4916690;29;19920;-89
2020/12/22 06:41:08;;;;;;;0.43;0.10;;;12.10;91.60;;;;;;4922466;29;20057;-89
2020/12/22 06:43:40;;;;;;;0.55;0.20;;;12.10;91.50;;;;;;4920355;29;20123;-88
2020/12/22 06:46:09;;;;;;;0.20;0.20;;;12.10;91.80;;;;;;4919163;29;20067;-90
2020/12/22 06:48:46;;;;;;;0.20;0.13;;;12.10;91.70;;;;;;4919902;29;20087;-89
2020/12/22 06:51:44;;;;;;;1.13;0.35;;;12.10;91.70;;;;;;4931333;29;20127;-90
2020/12/22 06:54:35;;;;;;;1.25;0.30;;;12.10;92.00;;;;;;4927799;29;20044;-89
2020/12/22 06:57:04;;;;;;;2.22;0.30;;;12.10;91.60;;;;;;4919498;29;20060;-88
2020/12/22 06:59:48;;;;;;;0.70;0.20;;;12.00;93.30;;;;;;4919541;29;20052;-91
2020/12/22 07:02:36;;;;;;;0.30;0.20;;;11.90;93.60;;;;;;4924505;29;20103;-89
2020/12/22 07:05:11;;;;;;;0.20;0.17;;;11.90;92.80;;;;;;4909959;29;20041;-90
2020/12/22 07:11:17;;;;;;;0.32;0.25;;;11.90;93.00;;;;;;4917073;29;20052;-89
2020/12/22 07:13:51;;;;;;;0.95;0.20;;;11.90;93.20;;;;;;4904753;29;20043;-90
2020/12/22 07:16:26;;;;;;;0.40;0.30;;;11.90;92.70;;;;;;4920407;29;20052;-89
2020/12/22 07:19:14;;;;;;;4.97;0.30;;;11.90;93.10;;;;;;4920918;29;20056;-88
2020/12/22 07:22:22;;;;;;;0.22;0.13;;;11.90;93.40;;;;;;4919998;29;20076;-88
2020/12/22 07:25:18;;;;;;;0.30;0.22;;;11.90;93.30;;;;;;4909600;29;20036;-88
2020/12/22 07:30:42;;;;;;;0.60;0.32;;;11.90;93.30;;;;;;4907781;29;20053;-89
2020/12/22 07:33:16;;;;;;;0.20;0.20;;;11.90;93.00;;;;;;4914787;29;20048;-89
2020/12/22 07:36:04;;;;;;;4.30;0.40;;;11.90;93.00;;;;;;4903349;29;20049;-89
2020/12/22 07:38:41;;;;;;;0.35;0.30;;;12.00;92.80;;;;;;4920622;29;20049;-89
2020/12/22 07:41:09;;;;;;;1.08;0.40;;;12.00;92.80;;;;;;4919022;29;20058;-89
2020/12/22 07:44:07;;;;;;;0.47;0.32;;;12.10;92.80;;;;;;4902090;29;20056;-89
2020/12/22 07:46:55;;;;;;;1.38;0.30;;;11.90;93.10;;;;;;4911302;29;20121;-90
2020/12/22 07:49:45;;;;;;;0.38;0.20;;;11.90;93.10;;;;;;4901042;29;20138;-90
2020/12/22 07:52:33;;;;;;;0.60;0.22;;;11.90;93.30;;;;;;4900555;29;20073;-88
2020/12/22 07:55:24;;;;;;;0.35;0.30;;;11.90;93.70;;;;;;4899410;29;20051;-91
2020/12/22 07:57:58;;;;;;;3.20;0.63;;;11.90;93.70;;;;;;4918246;29;20062;-89
2020/12/22 08:01:01;;;;;;;0.45;0.20;;;11.90;93.60;;;;;;4902975;29;20056;-89
2020/12/22 08:03:37;;;;;;;1.85;0.50;;;11.90;94.00;;;;;;4900005;29;20052;-90
2020/12/22 08:06:28;;;;;;;0.63;0.40;;;11.80;94.20;;;;;;4913979;29;20091;-90
2020/12/22 08:11:54;;;;;;;0.50;0.25;;;11.90;94.30;;;;;;4912984;29;20068;-89
2020/12/22 08:14:40;;;;;;;1.35;0.50;;;11.90;94.50;;;;;;4903856;29;20080;-89
2020/12/22 08:17:17;;;;;;;2.17;0.50;;;11.90;94.60;;;;;;4920280;29;20052;-90
2020/12/22 08:19:45;;;;;;;0.82;0.22;;;11.90;94.30;;;;;;4901564;29;20049;-88
2020/12/22 08:22:16;;;;;;;1.00;0.45;;;11.90;94.50;;;;;;4917280;29;20055;-88
2020/12/22 08:24:47;;;;;;;0.82;0.50;;;12.00;94.40;;;;;;4901399;29;20060;-88
2020/12/22 08:27:21;;;;;;;4.10;0.70;;;11.90;94.50;;;;;;4917580;29;20075;-89
2020/12/22 08:29:49;;;;;;;1.67;0.40;;;12.00;94.40;;;;;;4902636;29;20049;-89
2020/12/22 08:32:28;;;;;;;1.50;0.30;;;12.00;94.30;;;;;;4919008;29;20052;-88
2020/12/22 08:35:24;;;;;;;1.05;0.40;;;12.00;94.40;;;;;;4918954;29;20124;-88
2020/12/22 08:37:58;;;;;;;1.60;0.52;;;12.00;94.40;;;;;;4918085;29;20049;-88
2020/12/22 08:43:52;;;;;;;0.73;0.33;;;12.20;93.80;;;;;;4917689;29;20056;-86
2020/12/22 08:46:43;;;;;;;0.95;0.70;;;12.20;93.80;;;;;;4927975;29;20516;-88
2020/12/22 08:49:39;;;;;;;0.70;0.40;;;12.20;93.60;;;;;;4917581;29;20100;-91
2020/12/22 08:52:54;;;;;;;0.85;0.45;;;12.20;93.40;;;;;;4915449;29;20049;-88
2020/12/22 08:56:24;;;;;;;0.30;0.15;;;12.20;93.30;;;;;;4875656;29;20048;-89
2020/12/22 08:58:56;;;;;;;0.30;0.30;;;12.30;92.90;;;;;;4902155;29;20056;-89
2020/12/22 09:01:41;;;;;;;0.70;0.38;;;12.30;93.00;;;;;;4902657;29;20095;-91
2020/12/22 09:04:42;;;;;;;0.20;0.20;;;12.40;92.60;;;;;;4902209;29;20063;-89
2020/12/22 09:07:35;;;;;;;0.10;0.10;;;12.40;92.60;;;;;;4917764;29;20041;-88
2020/12/22 09:10:13;;;;;;;3.63;0.50;;;12.40;92.60;;;;;;4919961;29;20131;-89
2020/12/22 09:16:17;;;;;;;1.50;0.43;;;12.60;91.80;;;;;;4921685;29;20104;-90
2020/12/22 09:19:31;;;;;;;0.10;0.10;;;12.60;91.60;;;;;;4916532;29;20084;-89
2020/12/22 09:22:04;;;;;;;0.93;0.35;;;12.70;91.00;;;;;;4922686;29;20309;-89
2020/12/22 09:24:33;;;;;;;0.30;0.17;;;12.70;91.40;;;;;;4903178;29;20061;-86
2020/12/22 09:27:07;;;;;;;2.72;1.02;;;12.70;91.40;;;;;;4922303;29;20122;-86
2020/12/22 09:29:52;;;;;;;0.20;0.15;;;12.70;91.20;;;;;;4927841;29;20089;-88
2020/12/22 09:32:30;;;;;;;1.63;0.20;;;12.70;91.10;;;;;;4921537;29;20108;-87
2020/12/22 09:35:07;;;;;;;1.65;0.52;;;12.70;91.10;;;;;;4920742;29;20045;-88
2020/12/22 09:38:19;;;;;;;0.38;0.20;;;12.70;91.00;;;;;;4921923;29;20045;-88
2020/12/22 09:40:47;;;;;;;0.93;0.30;;;12.80;90.70;;;;;;4920044;29;20052;-90
2020/12/22 09:43:21;;;;;;;1.20;0.20;;;12.80;90.70;;;;;;4919990;29;20063;-87
2020/12/22 09:45:55;;;;;;;0.20;0.13;;;12.90;90.30;;;;;;4920448;29;20052;-90
2020/12/22 09:48:26;;;;;;;0.57;0.17;;;12.90;90.00;;;;;;4920700;29;20064;-88
2020/12/22 09:51:08;;;;;;;0.45;0.20;;;12.90;90.20;;;;;;4921455;29;20067;-88
2020/12/22 09:54:07;;;;;;;0.47;0.20;;;12.90;90.00;;;;;;4921511;29;20044;-88
2020/12/22 09:56:39;;;;;;;3.10;0.30;;;12.90;90.10;;;;;;4914606;29;20040;-87
2020/12/22 09:59:22;;;;;;;0.65;0.30;;;13.00;89.90;;;;;;4919856;29;20056;-88
2020/12/22 10:02:02;;;;;;;0.20;0.20;;;13.00;89.80;;;;;;4920296;29;20044;-88
2020/12/22 10:04:45;;;;;;;3.42;0.68;;;13.10;89.70;;;;;;4908235;29;20044;-88
2020/12/22 10:07:22;;;;;;;0.88;0.20;;;13.10;89.50;;;;;;4921289;29;20049;-88
2020/12/22 10:10:36;;;;;;;1.38;0.40;;;13.10;89.50;;;;;;4895510;29;20068;-87
2020/12/22 10:13:17;;;;;;;1.55;0.20;;;13.20;89.50;;;;;;4910145;29;20121;-88
2020/12/22 10:15:54;;;;;;;0.98;0.40;;;13.10;89.50;;;;;;4920542;29;20052;-88
2020/12/22 10:18:30;;;;;;;0.65;0.38;;;13.10;89.90;;;;;;4920311;29;20067;-89
2020/12/22 10:21:03;;;;;;;2.63;0.20;;;13.20;90.00;;;;;;4920478;29;20055;-88
2020/12/22 10:23:41;;;;;;;0.40;0.13;;;13.20;89.70;;;;;;4935532;29;20104;-89
2020/12/22 10:26:19;;;;;;;1.65;0.50;;;13.20;89.80;;;;;;4920365;29;20040;-88
2020/12/22 10:32:15;;;;;;;1.77;0.30;;;13.20;89.90;;;;;;4916994;29;20040;-91
2020/12/22 10:34:43;;;;;;;0.80;0.13;;;13.10;90.30;;;;;;4920447;29;20060;-88
2020/12/22 10:37:42;;;;;;;1.55;0.20;;;13.00;90.80;;;;;;4910492;29;20077;-86
2020/12/22 10:40:10;;;;;;;0.88;0.30;;;13.00;90.60;;;;;;4903577;29;20044;-89
2020/12/22 10:42:52;;;;;;;0.10;0.10;;;13.00;91.10;;;;;;4913548;29;20071;-88
2020/12/22 10:45:25;;;;;;;0.30;0.20;;;13.00;91.60;;;;;;4919575;29;20057;-86
2020/12/22 10:47:56;;;;;;;0.68;0.30;;;12.90;91.70;;;;;;4917956;29;20044;-88
2020/12/22 10:50:23;;;;;;;0.35;0.17;;;13.00;91.10;;;;;;4918984;29;20087;-91
2020/12/22 10:52:51;;;;;;;0.20;0.20;;;13.10;90.70;;;;;;4902754;29;20048;-87
2020/12/22 10:55:23;;;;;;;0.60;0.20;;;13.20;90.10;;;;;;4918216;29;20048;-87
2020/12/22 10:57:58;;;;;;;0.30;0.13;;;13.20;90.10;;;;;;4919335;29;20083;-89
2020/12/22 11:00:34;;;;;;;0.20;0.15;;;13.20;90.00;;;;;;4920620;29;20289;-86
2020/12/22 11:03:13;;;;;;;0.77;0.30;;;13.30;89.90;;;;;;4919514;29;20079;-87
2020/12/22 11:08:27;;;;;;;0.10;0.10;;;13.20;90.30;;;;;;4908287;29;20077;-89
2020/12/22 11:10:56;;;;;;;;;;;13.20;90.30;;;;;;4917611;29;20233;-87
2020/12/22 11:13:27;;;;;;;1.52;0.20;;;13.20;90.60;;;;;;4903149;29;19980;-88
2020/12/22 11:15:54;;;;;;;0.30;0.20;;;13.10;90.70;;;;;;4919025;29;20048;-90
2020/12/22 11:18:21;;;;;;;0.13;0.10;;;13.20;90.50;;;;;;4918320;29;20072;-88
2020/12/22 11:20:48;;;;;;;1.35;0.10;;;13.20;90.20;;;;;;4917898;29;20052;-90
2020/12/22 11:23:16;;;;;;;1.35;0.32;;;13.20;90.60;;;;;;4918209;29;20041;-89
2020/12/22 11:25:53;;;;;;;1.45;0.30;;;13.20;91.70;;;;;;4909394;29;20056;-87
2020/12/22 11:28:22;;;;;;;1.13;0.43;;;12.90;93.60;;;;;;4900615;29;20076;-89
2020/12/22 11:30:56;;;;;;;0.68;0.20;;;12.70;94.80;;;;;;4915530;29;20075;-86
2020/12/22 11:33:25;;;;;;;0.52;0.20;;;12.60;94.80;;;;;;4918021;29;20052;-87
2020/12/22 11:36:00;;;;;;;0.20;0.20;;;12.60;94.70;;;;;;4928327;29;20052;-88
2020/12/22 11:38:34;;;;;;;1.52;0.20;;;12.60;94.90;;;;;;4919363;29;20056;-90
2020/12/22 11:41:06;;;;;;;2.45;0.45;;;12.50;95.10;;;;;;4902090;29;20060;-88
2020/12/22 11:43:33;;;;;;;0.95;0.30;;;12.50;95.40;;;;;;4918742;29;20052;-88
2020/12/22 11:46:06;;;;;;;0.40;0.20;;;12.50;95.00;;;;;;4899457;29;20040;-89
2020/12/22 11:48:35;;;;;;;0.50;0.20;;;12.60;94.50;;;;;;4907013;29;20148;-89
2020/12/22 11:51:07;;;;;;;2.83;0.25;;;12.70;94.40;;;;;;4897599;29;20049;-89
2020/12/22 11:53:39;;;;;;;0.75;0.20;;;12.80;93.70;;;;;;4912106;29;20050;-90
2020/12/22 11:56:10;;;;;;;0.52;0.20;;;13.10;93.40;;;;;;4903521;29;20076;-88
2020/12/22 11:58:37;;;;;;;1.80;0.45;;;13.10;93.00;;;;;;4918490;29;20052;-87
2020/12/22 12:01:06;;;;;;;0.30;0.20;;;13.10;93.30;;;;;;4917279;29;20048;-90
2020/12/22 12:03:42;;;;;;;1.00;0.30;;;13.10;92.80;;;;;;4917641;29;20068;-89
2020/12/22 12:06:13;;;;;;;0.77;0.30;;;13.00;92.90;;;;;;4907936;29;20080;-90
2020/12/22 12:08:41;;;;;;;0.98;0.22;;;13.00;92.90;;;;;;4919020;29;20068;-92
2020/12/22 12:11:14;;;;;;;0.98;0.30;;;13.10;92.80;;;;;;4919197;29;20064;-90
2020/12/22 12:13:43;;;;;;;1.30;0.30;;;13.10;92.70;;;;;;4906611;29;20049;-89
2020/12/22 12:16:18;;;;;;;2.28;0.30;;;13.10;92.60;;;;;;4907409;29;20060;-88
2020/12/22 12:18:45;;;;;;;0.25;0.20;;;13.10;92.80;;;;;;4917100;29;20060;-90
2020/12/22 12:21:15;;;;;;;2.83;0.40;;;13.10;93.30;;;;;;4900801;29;20064;-85
2020/12/22 12:23:54;;;;;;;1.27;0.32;;;13.00;94.10;;;;;;4918223;29;20052;-88
2020/12/22 12:26:26;;;;;;;1.10;0.43;;;13.00;94.50;;;;;;4919079;29;20049;-89
2020/12/22 12:28:56;;;;;;;3.90;1.70;;;12.90;94.60;;;;;;4905778;29;20059;-89
2020/12/22 12:31:26;;;;;;;1.50;0.43;;;13.00;94.30;;;;;;4924896;29;20366;-89
2020/12/22 12:33:53;;;;;;;0.93;0.80;;;13.00;93.90;;;;;;4905218;29;20052;-87
2020/12/22 12:36:23;;;;;;;0.98;0.30;;;12.90;94.10;;;;;;4916859;29;20047;-87
2020/12/22 12:38:51;;;;;;;2.63;0.47;;;13.00;93.80;;;;;;4912789;29;20072;-88
2020/12/22 12:41:22;;;;;;;1.08;0.50;;;13.10;93.80;;;;;;4883481;29;20099;-87
2020/12/22 12:43:49;;;;;;;2.90;0.47;;;13.20;92.80;;;;;;4914378;29;20157;-89
2020/12/22 12:46:22;;;;;;;1.80;0.47;;;13.40;92.80;;;;;;4919374;29;20292;-88
2020/12/22 12:48:54;;;;;;;1.48;0.40;;;13.30;92.30;;;;;;4921501;29;20395;-88
2020/12/22 12:51:27;;;;;;;0.57;0.30;;;13.30;92.20;;;;;;4905381;29;20052;-90
2020/12/22 12:53:54;;;;;;;0.43;0.30;;;13.50;91.70;;;;;;4921799;29;20112;-91
2020/12/22 12:56:24;;;;;;;1.35;0.17;;;13.40;91.60;;;;;;4936962;29;20048;-88
2020/12/22 12:58:58;;;;;;;0.28;0.28;;;13.40;92.50;;;;;;4905989;29;20075;-89
2020/12/22 13:01:26;;;;;;;0.60;0.15;;;13.40;93.50;;;;;;4919370;29;20057;-88
2020/12/22 13:03:57;;;;;;;1.20;0.25;;;13.20;94.70;;;;;;4901737;29;20049;-89
2020/12/22 13:06:28;;;;;;;0.43;0.30;;;13.10;94.90;;;;;;4902052;29;20067;-88
2020/12/22 13:09:02;;;;;;;1.75;0.30;;;13.00;94.50;;;;;;4912902;29;20060;-88
2020/12/22 13:11:34;;;;;;;1.10;0.40;;;13.00;95.10;;;;;;4918682;29;20053;-88
2020/12/22 13:14:04;;;;;;;0.63;0.30;;;13.00;95.00;;;;;;4915518;29;20045;-86
2020/12/22 13:16:33;;;;;;;0.22;0.22;;;13.00;94.70;;;;;;4918228;29;20068;-89
2020/12/22 13:19:01;;;;;;;0.90;0.50;;;13.00;94.70;;;;;;4917955;29;20061;-88
2020/12/22 13:21:29;;;;;;;0.93;0.43;;;13.10;94.40;;;;;;4901638;29;20348;-86
2020/12/22 13:24:00;;;;;;;0.80;0.45;;;13.00;94.80;;;;;;4901648;29;20077;-88
2020/12/22 13:26:36;;;;;;;1.20;0.50;;;13.00;95.10;;;;;;4916624;29;20232;-88
2020/12/22 13:29:12;;;;;;;1.10;0.30;;;12.90;95.50;;;;;;4903718;29;20156;-89
2020/12/22 13:31:45;;;;;;;0.85;0.40;;;12.90;95.90;;;;;;4897241;29;20048;-87
2020/12/22 13:34:13;;;;;;;0.93;0.35;;;12.90;95.60;;;;;;4900579;29;20048;-88
2020/12/22 13:36:41;;;;;;;0.47;0.40;;;12.90;95.60;;;;;;4916684;29;20143;-87
2020/12/22 13:39:12;;;;;;;0.57;0.30;;;12.90;95.90;;;;;;4922899;29;20083;-89
2020/12/22 13:41:40;;;;;;;1.70;0.60;;;12.90;96.00;;;;;;4920725;29;20048;-88
2020/12/22 13:44:15;;;;;;;0.95;0.30;;;12.80;95.90;;;;;;4917411;29;20232;-88
2020/12/22 13:46:44;;;;;;;0.50;0.20;;;12.90;95.50;;;;;;4914879;29;20044;-88
2020/12/22 13:49:14;;;;;;;0.95;0.25;;;13.10;94.80;;;;;;4913583;29;20048;-88
2020/12/22 13:51:42;;;;;;;0.68;0.28;;;13.10;94.70;;;;;;4910028;29;20252;-90
2020/12/22 13:54:09;;;;;;;1.25;0.30;;;13.20;94.10;;;;;;4919211;29;20048;-88
2020/12/22 13:56:42;;;;;;;1.75;0.60;;;13.20;94.10;;;;;;4909565;29;20125;-88
2020/12/22 13:59:10;;;;;;;0.70;0.20;;;13.20;93.90;;;;;;4919415;29;20072;-89
2020/12/22 14:01:38;;;;;;;3.75;0.30;;;13.20;93.70;;;;;;4915892;29;20255;-89
2020/12/22 14:04:07;;;;;;;1.98;0.40;;;13.20;93.80;;;;;;4920482;29;20057;-90
2020/12/22 14:06:42;;;;;;;2.92;0.45;;;13.20;93.80;;;;;;4904912;29;20074;-88
2020/12/22 14:09:40;;;;;;;0.65;0.28;;;13.20;94.10;;;;;;4899343;29;20053;-89
2020/12/22 14:12:10;;;;;;;0.60;0.30;;;13.30;93.00;;;;;;4887172;29;20116;-90
2020/12/22 14:14:44;;;;;;;0.60;0.30;;;13.20;93.30;;;;;;4912097;29;20048;-88
2020/12/22 14:17:15;;;;;;;0.75;0.30;;;13.30;93.10;;;;;;4924633;29;20089;-88
2020/12/22 14:19:49;;;;;;;3.10;0.40;;;13.20;93.20;;;;;;4920629;29;20115;-90
2020/12/22 14:22:17;;;;;;;2.13;0.30;;;13.30;93.10;;;;;;4919193;29;20048;-90
2020/12/22 14:24:50;;;;;;;0.22;0.20;;;13.20;93.10;;;;;;4918309;29;20059;-87
2020/12/22 14:27:30;;;;;;;0.73;0.22;;;13.20;93.20;;;;;;4920532;29;20032;-88
2020/12/22 14:30:06;;;;;;;0.50;0.20;;;13.20;93.50;;;;;;4934818;29;20120;-91
2020/12/22 14:32:33;;;;;;;1.40;0.30;;;13.20;93.60;;;;;;4920376;29;20044;-88
2020/12/22 14:35:19;;;;;;;1.13;0.20;;;13.20;93.60;;;;;;4920110;29;20048;-92